Decoded Metar for LFBO (TOULOUSE BLAGNAC in FRANCE) (IATA:TLS) | Meteo·Mobile Aviation Weather
aviador You're here:

LFBO Decoded Metar

TOULOUSE BLAGNAC in FRANCE
Report Time2018-08-21 16:00:00
UTC Time2018-08-21 16:06:45
Flight Rules vfr VFR
WindVRB at 05 kt
Visibility9999 m
Phenomena:N/A
Clouds:N/A
Expected CloudBase > 6,800 ft AGL from Temp-Dew spread
CeilingNone
Temp32°C (ISA +18)
Dew Point15°C (36% RH)
Heat Index31.6°C
AAT31.8°C
QNH1015 hPa
Density Alt2,717 ft
Elevation502 ft
Report Wrong Elevation
Raw Report
METAR LFBO 211600Z AUTO VRB05KT CAVOK 32/15 Q1015 NOSIG=

Extra information for LFBO:More info

Metar Taf Metar & Taf Last 4 Metars F.Rules Stats Wind Profile Meteogram Temp Stats Airport Information Weather charts Add Link Nearby VenuesMetar ALERT Operation Metar Decoded Social comments